CheckWX is a tool to help pilots better visualize weather data.  It is not intended as a substitute for an official pre-flight weather briefing.

20:11:43 UTC

05U METAR
Eureka Airport
Eureka, Nevada, USA
Current

17 mins ago

K05U 261955Z AUTO 22013G26KT 10SM FEW110 27/M03 A2997 RMK A01
Observed
Jun-26 @ 19:55 UTC
Wind
  • 220° at 13 KTS
  • Gusting to 26 KTS
Visibility
10 SM
Flight Rules
VFR
Cloud Levels
  • Few at 11,000' AGL
Temperature
27°C / 81°F
Dewpoint
-3°C / 27°F
Humidity
14%
Altimeter
29.97" Hg
Pressure
1014.92 hPa
Previous

37 mins ago

K05U 261935Z AUTO 22012KT 10SM BKN110 27/M02 A2998 RMK A01
Observed
Jun-26 @ 19:35 UTC
Wind
  • 220° at 12 KTS
Visibility
10 SM
Flight Rules
VFR
Cloud Levels
  • Broken at 11,000' AGL
Temperature
27°C / 81°F
Dewpoint
-2°C / 28°F
Humidity
15%
Altimeter
29.98" Hg
Pressure
1015.22 hPa
Previous

57 mins ago

K05U 261915Z AUTO 17015G20KT 10SM BKN100 26/M01 A2998 RMK A01
Observed
Jun-26 @ 19:15 UTC
Wind
  • 170° at 15 KTS
  • Gusting to 20 KTS
Visibility
10 SM
Flight Rules
VFR
Cloud Levels
  • Broken at 10,000' AGL
Temperature
26°C / 79°F
Dewpoint
-1°C / 30°F
Humidity
17%
Altimeter
29.98" Hg
Pressure
1015.22 hPa